Time;durP1;ratioP1;P1;durP2;ratioP2;P2;SDS_P1;SDS_P2;PMS_P1;PMS_P2;Temp;Humidity;BMP_temperature;BMP_pressure;BME280_temperature;BME280_humidity;BME280_pressure;Samples;Min_cycle;Max_cycle;Signal;HPM_P1;HPM_P2
2023/08/24 00:01:52;;;;;;;7.43;7.17;;;;;;;18.30;79.95;101482.81;4825263;29;20252;-71
2023/08/24 00:04:18;;;;;;;6.70;6.30;;;;;;;18.31;79.70;101481.81;4825718;29;20671;-71
2023/08/24 00:06:44;;;;;;;6.27;5.90;;;;;;;18.32;80.04;101484.34;4825125;29;20688;-71
2023/08/24 00:09:11;;;;;;;6.17;5.80;;;;;;;18.33;79.70;101480.59;4825339;29;20211;-70
2023/08/24 00:11:37;;;;;;;9.30;7.10;;;;;;;18.32;79.66;101472.66;4825363;29;20206;-71
2023/08/24 00:14:04;;;;;;;8.00;7.60;;;;;;;18.27;79.74;101471.34;4825083;29;20240;-71
2023/08/24 00:16:30;;;;;;;5.67;5.57;;;;;;;18.27;80.21;101484.88;4825033;29;20736;-71
2023/08/24 00:18:57;;;;;;;6.23;6.00;;;;;;;18.24;80.22;101466.31;4825436;29;20687;-71
2023/08/24 00:21:24;;;;;;;7.30;6.80;;;;;;;18.23;80.79;101467.34;4825272;29;20336;-71
2023/08/24 00:23:51;;;;;;;9.10;7.70;;;;;;;18.19;80.48;101462.47;4825013;29;20188;-71
2023/08/24 00:26:17;;;;;;;5.73;5.63;;;;;;;18.19;80.16;101463.31;4825049;29;20211;-71
2023/08/24 00:28:44;;;;;;;7.90;7.33;;;;;;;18.16;80.19;101460.94;4823690;29;20666;-70
2023/08/24 00:31:10;;;;;;;6.53;6.13;;;;;;;18.17;80.75;101464.50;4823622;29;20261;-70
2023/08/24 00:33:37;;;;;;;5.60;5.23;;;;;;;18.16;80.40;101463.66;4823595;29;20316;-70
2023/08/24 00:36:05;;;;;;;7.87;7.37;;;;;;;18.15;80.60;101464.72;4825029;29;20195;-71
2023/08/24 00:38:32;;;;;;;7.00;6.70;;;;;;;18.13;80.28;101465.91;4823434;29;20219;-71
2023/08/24 00:40:59;;;;;;;13.23;7.27;;;;;;;18.12;80.44;101461.53;4823396;29;20618;-71
2023/08/24 00:43:26;;;;;;;5.23;5.23;;;;;;;18.09;80.30;101453.75;4824700;29;20320;-71
2023/08/24 00:45:58;;;;;;;6.37;6.17;;;;;;;18.03;80.74;101449.09;4824869;29;20203;-71
2023/08/24 00:48:28;;;;;;;7.47;7.17;;;;;;;18.00;80.81;101446.72;4823312;29;20226;-71
2023/08/24 00:50:56;;;;;;;5.90;5.80;;;;;;;17.94;80.96;101455.59;4823420;29;20250;-71
2023/08/24 00:53:25;;;;;;;6.90;6.70;;;;;;;17.91;81.07;101456.78;4825197;29;20243;-71
2023/08/24 00:55:52;;;;;;;6.50;6.40;;;;;;;17.93;81.16;101453.91;4824534;29;20549;-71
2023/08/24 00:58:19;;;;;;;6.30;6.10;;;;;;;17.90;81.19;101456.97;4824426;29;20211;-71
2023/08/24 01:00:46;;;;;;;6.07;5.67;;;;;;;17.90;80.96;101462.38;4823471;29;20196;-71
2023/08/24 01:03:13;;;;;;;6.10;5.90;;;;;;;17.89;81.14;101453.44;4823248;29;20294;-71
2023/08/24 01:05:43;;;;;;;5.67;5.57;;;;;;;17.86;81.41;101455.66;4824369;29;20199;-71
2023/08/24 01:08:10;;;;;;;6.57;6.17;;;;;;;17.84;81.52;101452.28;4824727;29;20249;-71
2023/08/24 01:11:06;;;;;;;12.07;6.23;;;;;;;17.79;81.54;101458.22;4823152;29;20680;-71
2023/08/24 01:14:14;;;;;;;6.47;6.37;;;;;;;17.79;81.68;101459.06;4824877;29;20593;-71
2023/08/24 01:16:45;;;;;;;8.30;7.80;;;;;;;17.78;81.31;101457.38;4804311;29;20214;-71
2023/08/24 01:19:34;;;;;;;6.37;6.27;;;;;;;17.72;81.61;101457.28;4821630;29;20317;-71
2023/08/24 01:22:04;;;;;;;8.70;8.07;;;;;;;17.66;81.74;101453.41;4823051;29;20191;-71
2023/08/24 01:24:38;;;;;;;8.33;7.70;;;;;;;17.59;81.70;101440.81;4824481;29;20211;-71
2023/08/24 01:27:05;;;;;;;8.93;8.23;;;;;;;17.51;82.05;101438.97;4824146;29;20236;-71
2023/08/24 01:29:32;;;;;;;8.90;8.53;;;;;;;17.46;82.37;101443.22;4824070;29;20211;-71
2023/08/24 01:31:59;;;;;;;6.93;6.73;;;;;;;17.44;82.41;101445.28;4807823;29;20290;-71
2023/08/24 01:34:25;;;;;;;7.57;7.13;;;;;;;17.47;82.67;101442.22;4825295;29;20629;-72
2023/08/24 01:36:52;;;;;;;8.10;7.80;;;;;;;17.47;82.84;101448.47;4828075;29;20191;-71
2023/08/24 01:39:42;;;;;;;9.20;8.60;;;;;;;17.47;82.81;101437.66;4827797;29;20712;-71
2023/08/24 01:42:16;;;;;;;6.77;6.57;;;;;;;17.45;82.79;101434.28;4828023;29;20191;-71
2023/08/24 01:44:48;;;;;;;6.23;6.13;;;;;;;17.41;82.95;101432.94;4826239;29;20190;-71
2023/08/24 01:47:17;;;;;;;6.53;6.13;;;;;;;17.40;83.03;101433.97;4826106;29;20215;-70
2023/08/24 01:49:44;;;;;;;6.13;5.93;;;;;;;17.39;83.24;101432.31;4827566;29;20187;-71
2023/08/24 01:52:11;;;;;;;5.70;5.53;;;;;;;17.40;82.91;101433.16;4826038;29;20195;-71
2023/08/24 01:54:39;;;;;;;6.63;6.20;;;;;;;17.41;83.08;101437.50;4826026;29;20199;-71
2023/08/24 01:57:06;;;;;;;6.50;6.40;;;;;;;17.41;83.33;101435.66;4825940;29;20203;-71
2023/08/24 01:59:33;;;;;;;6.67;6.57;;;;;;;17.41;83.32;101432.94;4825846;29;20243;-71
2023/08/24 02:01:59;;;;;;;9.07;6.93;;;;;;;17.38;82.99;101424.34;4825856;29;20203;-71
2023/08/24 02:04:25;;;;;;;6.93;6.77;;;;;;;17.30;82.92;101415.28;4827066;29;20245;-71
2023/08/24 02:06:52;;;;;;;8.60;7.97;;;;;;;17.23;83.28;101406.19;4827503;29;20187;-71
2023/08/24 02:09:19;;;;;;;7.57;7.47;;;;;;;17.18;83.37;101414.03;4825683;29;20275;-71
2023/08/24 02:11:45;;;;;;;6.73;6.63;;;;;;;17.20;83.44;101416.53;4826942;29;20202;-71
2023/08/24 02:14:12;;;;;;;8.30;7.87;;;;;;;17.21;83.60;101426.31;4825679;29;20203;-71
2023/08/24 02:16:39;;;;;;;9.03;6.80;;;;;;;17.20;83.46;101414.66;4825607;29;20199;-71
2023/08/24 02:19:05;;;;;;;7.60;7.07;;;;;;;17.20;83.32;101419.22;4826744;29;20723;-71
2023/08/24 02:21:35;;;;;;;6.90;6.67;;;;;;;17.19;83.44;101414.84;4826799;29;20563;-71
2023/08/24 02:24:03;;;;;;;9.83;6.73;;;;;;;17.20;83.53;101432.75;4826778;29;20567;-71
2023/08/24 02:26:30;;;;;;;6.87;6.67;;;;;;;17.18;83.23;101424.84;4826930;29;20244;-71
2023/08/24 02:28:57;;;;;;;7.83;7.47;;;;;;;17.13;83.28;101420.97;4825305;29;20223;-71
2023/08/24 02:31:24;;;;;;;8.03;7.73;;;;;;;17.13;83.12;101419.09;4826618;29;20568;-71
2023/08/24 02:33:50;;;;;;;8.47;7.83;;;;;;;17.08;82.99;101416.09;4826856;29;20198;-72
2023/08/24 02:36:17;;;;;;;8.07;7.67;;;;;;;17.05;83.08;101416.44;4825570;29;20207;-72
2023/08/24 02:38:43;;;;;;;9.27;8.80;;;;;;;17.00;83.35;101408.03;4826445;29;20215;-71
2023/08/24 02:41:10;;;;;;;9.93;9.40;;;;;;;17.02;83.35;101395.19;4826388;29;20207;-71
2023/08/24 02:43:37;;;;;;;8.83;8.53;;;;;;;16.97;83.90;101407.56;4825200;29;20233;-71
2023/08/24 02:46:05;;;;;;;10.50;9.53;;;;;;;16.93;83.92;101415.13;4826010;29;20204;-71
2023/08/24 02:48:32;;;;;;;6.90;6.70;;;;;;;16.91;83.88;101409.09;4826508;29;20401;-70
2023/08/24 02:51:04;;;;;;;9.23;8.67;;;;;;;16.88;83.84;101412.16;4825095;29;20282;-71
2023/08/24 02:53:30;;;;;;;10.13;9.47;;;;;;;16.84;84.09;101413.53;4825071;29;20203;-71
2023/08/24 02:55:57;;;;;;;9.73;9.30;;;;;;;16.80;83.90;101410.31;4826265;29;20215;-71
2023/08/24 02:58:23;;;;;;;9.37;8.77;;;;;;;16.81;84.43;101408.44;4826177;29;20211;-70
2023/08/24 03:00:50;;;;;;;10.10;9.67;;;;;;;16.80;84.81;101412.19;4824941;29;20271;-71
2023/08/24 03:03:17;;;;;;;8.77;8.37;;;;;;;16.82;84.83;101416.38;4826182;29;20248;-71
2023/08/24 03:06:01;;;;;;;10.97;10.27;;;;;;;16.88;84.96;101417.56;4826371;29;20187;-71
2023/08/24 03:08:29;;;;;;;10.80;10.30;;;;;;;16.89;84.81;101424.59;4826225;29;20301;-71
2023/08/24 03:10:56;;;;;;;11.97;10.17;;;;;;;16.89;84.87;101424.59;4825387;29;20198;-72
2023/08/24 03:13:23;;;;;;;9.43;8.97;;;;;;;16.88;84.70;101429.19;4824737;29;20668;-72
2023/08/24 03:15:51;;;;;;;8.83;8.53;;;;;;;16.87;84.86;101422.09;4824739;29;20282;-71
2023/08/24 03:18:19;;;;;;;9.80;9.30;;;;;;;16.87;84.92;101403.19;4824637;29;20219;-71
2023/08/24 03:20:47;;;;;;;9.37;8.97;;;;;;;16.87;85.02;101402.34;4825486;29;20192;-71
2023/08/24 03:23:15;;;;;;;10.93;10.33;;;;;;;16.87;85.25;101396.94;4825512;29;20203;-71
2023/08/24 03:25:42;;;;;;;8.77;8.30;;;;;;;16.90;85.23;101399.28;4826299;29;20188;-71
2023/08/24 03:28:09;;;;;;;10.87;10.03;;;;;;;16.98;85.41;101401.09;4825936;29;20638;-71
2023/08/24 03:30:37;;;;;;;9.63;8.97;;;;;;;16.99;85.35;101400.94;4824694;29;20298;-71
2023/08/24 03:33:05;;;;;;;10.40;9.90;;;;;;;17.04;85.55;101403.97;4825675;29;20200;-71
2023/08/24 03:35:33;;;;;;;9.47;8.97;;;;;;;17.07;85.54;101408.16;4825654;29;20205;-71
2023/08/24 03:38:00;;;;;;;9.73;8.77;;;;;;;17.09;85.56;101406.97;4825694;29;20281;-71
2023/08/24 03:40:26;;;;;;;8.47;8.13;;;;;;;17.12;85.51;101416.56;4825623;29;20195;-71
2023/08/24 03:42:53;;;;;;;13.30;12.40;;;;;;;17.13;85.53;101421.81;4825565;29;20187;-72
2023/08/24 03:45:21;;;;;;;8.97;8.27;;;;;;;17.13;85.50;101424.50;4824331;29;20294;-71
2023/08/24 03:47:48;;;;;;;10.43;9.60;;;;;;;17.15;85.49;101421.63;4824208;29;20227;-71
2023/08/24 03:50:15;;;;;;;10.23;9.57;;;;;;;17.15;85.50;101417.06;4825899;29;20203;-72
2023/08/24 03:52:42;;;;;;;11.40;10.60;;;;;;;17.18;85.06;101426.69;4824245;29;20286;-72
2023/08/24 03:55:10;;;;;;;10.87;9.83;;;;;;;17.15;85.47;101425.16;4824126;29;20294;-72
2023/08/24 03:57:37;;;;;;;10.77;10.27;;;;;;;17.16;84.68;101428.72;4824849;29;20305;-72
2023/08/24 04:00:07;;;;;;;10.87;10.37;;;;;;;17.12;85.08;101425.53;4825362;29;20197;-72
2023/08/24 04:02:39;;;;;;;8.00;7.80;;;;;;;17.11;84.99;101429.25;4824268;29;20183;-72
2023/08/24 04:05:06;;;;;;;9.30;9.10;;;;;;;17.12;85.11;101422.81;4823970;29;20291;-72
2023/08/24 04:07:33;;;;;;;9.80;9.03;;;;;;;17.15;85.31;101421.63;4825605;29;20715;-71
2023/08/24 04:09:59;;;;;;;10.43;9.67;;;;;;;17.11;85.41;101401.38;4825093;29;20192;-71
2023/08/24 04:12:25;;;;;;;7.93;7.63;;;;;;;17.10;85.34;101407.81;4825131;29;20203;-71
2023/08/24 04:14:52;;;;;;;10.57;10.17;;;;;;;17.05;85.79;101394.00;4825311;29;20261;-71
2023/08/24 04:17:19;;;;;;;15.07;12.20;;;;;;;17.04;85.98;101376.94;4823997;29;20206;-70
2023/08/24 04:19:47;;;;;;;13.37;12.07;;;;;;;17.06;86.14;101379.47;4824590;29;20340;-71
2023/08/24 04:22:13;;;;;;;11.77;11.07;;;;;;;17.08;86.19;101372.88;4823738;29;20208;-71
2023/08/24 04:24:39;;;;;;;10.33;9.70;;;;;;;17.11;86.01;101369.78;4825197;29;20563;-71
2023/08/24 04:27:06;;;;;;;9.83;9.17;;;;;;;17.15;86.24;101372.97;4824908;29;20244;-72
2023/08/24 04:29:32;;;;;;;18.60;12.67;;;;;;;17.18;85.87;101380.75;4823885;29;20293;-72
2023/08/24 04:31:59;;;;;;;11.20;10.03;;;;;;;17.21;86.13;101370.41;4824786;29;20737;-72
2023/08/24 04:34:26;;;;;;;9.73;9.10;;;;;;;17.25;86.07;101371.75;4825079;29;20180;-72
2023/08/24 04:36:54;;;;;;;11.80;11.00;;;;;;;17.25;86.09;101371.75;4824761;29;20191;-72
2023/08/24 04:39:20;;;;;;;19.67;16.03;;;;;;;17.24;86.18;101361.09;4824558;29;21204;-71
2023/08/24 04:41:47;;;;;;;17.20;15.47;;;;;;;17.20;86.57;101357.06;4824785;29;20187;-71
2023/08/24 04:44:13;;;;;;;18.07;16.40;;;;;;;17.18;86.85;101362.69;4825194;29;20602;-72
2023/08/24 04:46:40;;;;;;;18.67;17.00;;;;;;;17.18;87.09;101365.38;4824893;29;20187;-72
2023/08/24 04:49:07;;;;;;;18.03;16.33;;;;;;;17.17;87.11;101358.28;4824504;29;20235;-71
2023/08/24 04:51:33;;;;;;;23.30;19.37;;;;;;;17.17;87.40;101349.34;4825135;29;20199;-71
2023/08/24 04:54:00;;;;;;;22.93;18.97;;;;;;;17.19;87.56;101348.13;4824817;29;20207;-71
2023/08/24 04:56:26;;;;;;;20.93;18.87;;;;;;;17.14;88.11;101333.50;4824563;29;20196;-71
2023/08/24 04:58:55;;;;;;;32.37;21.33;;;;;;;17.10;88.35;101318.66;4824415;29;20696;-70
2023/08/24 05:01:21;;;;;;;25.17;21.30;;;;;;;17.09;88.66;101306.16;4824543;29;20255;-71
2023/08/24 05:03:48;;;;;;;24.70;21.87;;;;;;;17.04;89.18;101282.38;4824455;29;20287;-70
2023/08/24 05:06:14;;;;;;;31.83;23.10;;;;;;;17.01;89.40;101277.34;4824962;29;20579;-70
2023/08/24 05:08:41;;;;;;;28.97;24.37;;;;;;;17.02;89.62;101275.47;4824244;29;20219;-69
2023/08/24 05:11:17;;;;;;;35.47;25.63;;;;;;;17.03;89.66;101274.44;4824340;29;20257;-70
2023/08/24 05:13:43;;;;;;;30.80;23.83;;;;;;;17.11;89.19;101274.38;4824603;29;20219;-70
2023/08/24 05:16:11;;;;;;;25.63;20.57;;;;;;;17.14;89.45;101265.94;4824532;29;20198;-70
2023/08/24 05:18:38;;;;;;;28.30;21.50;;;;;;;17.19;89.39;101260.81;4824202;29;20222;-70
2023/08/24 05:21:05;;;;;;;23.47;19.17;;;;;;;17.17;89.16;101269.13;4824241;29;20683;-70
2023/08/24 05:23:33;;;;;;;23.97;19.23;;;;;;;17.24;89.09;101274.63;4824239;29;20196;-70
2023/08/24 05:26:00;;;;;;;22.17;17.13;;;;;;;17.25;89.08;101274.44;4824451;29;20575;-70
2023/08/24 05:28:28;;;;;;;23.63;18.77;;;;;;;17.32;88.98;101272.69;4824066;29;20227;-71
2023/08/24 05:30:56;;;;;;;24.50;18.67;;;;;;;17.31;88.57;101260.19;4824339;29;20729;-71
2023/08/24 05:33:23;;;;;;;21.60;18.23;;;;;;;17.35;88.50;101260.69;4824555;29;20204;-71
2023/08/24 05:35:51;;;;;;;21.23;18.37;;;;;;;17.39;88.50;101258.47;4824046;29;20736;-72
2023/08/24 05:38:17;;;;;;;20.73;17.13;;;;;;;17.47;88.26;101263.78;4824465;29;20218;-72
2023/08/24 05:40:47;;;;;;;18.40;15.93;;;;;;;17.50;87.83;101268.81;4823996;29;20695;-72
2023/08/24 05:43:13;;;;;;;19.60;15.60;;;;;;;17.52;88.01;101256.81;4823986;29;20203;-72
2023/08/24 05:45:40;;;;;;;18.90;16.67;;;;;;;17.55;87.95;101258.31;4824752;29;20191;-71
2023/08/24 05:48:07;;;;;;;23.90;17.03;;;;;;;17.59;87.68;101267.75;4823893;29;20670;-71
2023/08/24 05:50:34;;;;;;;18.97;14.77;;;;;;;17.61;87.74;101284.66;4823893;29;20248;-72
2023/08/24 05:53:00;;;;;;;22.57;15.80;;;;;;;17.67;87.48;101278.50;4824087;29;20628;-72
2023/08/24 05:55:27;;;;;;;21.23;13.43;;;;;;;17.68;87.09;101288.28;4823930;29;20192;-72
2023/08/24 05:57:53;;;;;;;19.33;15.33;;;;;;;17.71;86.95;101288.75;4823812;29;20211;-72
2023/08/24 06:00:22;;;;;;;14.10;12.97;;;;;;;17.72;86.76;101276.91;4824087;29;20207;-72
2023/08/24 06:02:48;;;;;;;15.87;14.00;;;;;;;17.76;86.33;101282.78;4824345;29;20305;-71
2023/08/24 06:05:17;;;;;;;15.60;14.13;;;;;;;17.77;86.57;101284.47;4824013;29;20572;-72
2023/08/24 06:07:45;;;;;;;15.87;13.87;;;;;;;17.84;86.45;101287.28;4823900;29;20636;-71
2023/08/24 06:10:12;;;;;;;15.30;13.90;;;;;;;17.91;85.44;101286.34;4823582;29;20250;-71
2023/08/24 06:12:39;;;;;;;17.50;13.17;;;;;;;17.94;85.57;101288.69;4823961;29;20627;-72
2023/08/24 06:15:07;;;;;;;14.33;13.03;;;;;;;17.94;85.79;101288.69;4824269;29;20196;-72
2023/08/24 06:17:35;;;;;;;14.17;12.77;;;;;;;17.95;85.67;101287.66;4823921;29;20220;-71
2023/08/24 06:20:05;;;;;;;14.57;13.07;;;;;;;17.99;85.51;101282.72;4823751;29;20199;-71
2023/08/24 06:22:32;;;;;;;15.00;13.40;;;;;;;18.02;85.59;101275.06;4827247;29;20184;-71
2023/08/24 06:25:01;;;;;;;14.00;12.90;;;;;;;18.07;84.92;101269.94;4827035;29;20281;-71
2023/08/24 06:27:27;;;;;;;14.17;12.87;;;;;;;18.14;85.27;101272.72;4827090;29;20194;-71
2023/08/24 06:29:54;;;;;;;15.07;13.63;;;;;;;18.23;84.90;101277.03;4827142;29;20211;-71
2023/08/24 06:32:20;;;;;;;15.30;13.70;;;;;;;18.35;84.56;101277.38;4826951;29;20199;-72
2023/08/24 06:34:47;;;;;;;15.50;13.07;;;;;;;18.45;84.98;101258.97;4826852;29;20191;-73
2023/08/24 06:37:13;;;;;;;13.47;12.37;;;;;;;18.56;84.68;101258.50;4826458;29;20195;-71
2023/08/24 06:39:40;;;;;;;12.83;11.67;;;;;;;18.67;83.62;101258.84;4826568;29;20228;-72
2023/08/24 06:42:06;;;;;;;11.53;10.67;;;;;;;18.77;83.68;101253.13;4827034;29;20248;-73
2023/08/24 06:44:33;;;;;;;12.93;11.73;;;;;;;18.88;83.04;101265.34;4825206;29;20203;-73
2023/08/24 06:47:00;;;;;;;15.43;11.93;;;;;;;18.97;82.65;101262.28;4826630;29;20187;-72
2023/08/24 06:49:30;;;;;;;13.03;11.90;;;;;;;19.03;81.82;101244.41;4826238;29;20218;-72
2023/08/24 06:51:57;;;;;;;11.77;9.77;;;;;;;19.11;81.77;101247.84;4826902;29;20191;-72
2023/08/24 06:54:23;;;;;;;10.40;9.90;;;;;;;19.21;81.76;101243.97;4826814;29;20597;-71
2023/08/24 06:56:52;;;;;;;13.93;12.47;;;;;;;19.32;80.90;101246.13;4826234;29;20199;-71
2023/08/24 06:59:19;;;;;;;13.17;11.37;;;;;;;19.45;80.30;101241.69;4826865;29;20279;-72
2023/08/24 07:01:47;;;;;;;10.53;9.70;;;;;;;19.57;79.78;101241.97;4826445;29;20729;-71
2023/08/24 07:04:13;;;;;;;12.53;11.53;;;;;;;19.69;79.34;101236.88;4826145;29;20188;-72
2023/08/24 07:06:41;;;;;;;10.90;10.10;;;;;;;19.79;79.46;101232.75;4824815;29;20676;-72
2023/08/24 07:09:08;;;;;;;10.63;9.90;;;;;;;19.89;79.42;101233.25;4825846;29;20215;-71
2023/08/24 07:11:34;;;;;;;18.57;11.83;;;;;;;20.02;76.86;101232.47;4826237;29;20191;-71
2023/08/24 07:14:00;;;;;;;17.17;10.53;;;;;;;20.17;77.11;101230.44;4826268;29;20196;-71
2023/08/24 07:16:27;;;;;;;10.40;9.33;;;;;;;20.27;76.78;101232.78;4825947;29;20199;-71
2023/08/24 07:18:53;;;;;;;11.40;10.40;;;;;;;20.31;75.95;101229.50;4826132;29;20211;-72
2023/08/24 07:21:20;;;;;;;14.07;11.37;;;;;;;20.37;75.71;101231.38;4826142;29;20661;-72
2023/08/24 07:23:47;;;;;;;11.77;9.83;;;;;;;20.45;75.40;101236.63;4826090;29;20187;-72
2023/08/24 07:26:13;;;;;;;8.40;7.90;;;;;;;20.50;74.93;101242.31;4826081;29;20604;-72
2023/08/24 07:28:39;;;;;;;10.03;9.27;;;;;;;20.58;75.50;101235.84;4825614;29;20643;-72
2023/08/24 07:31:08;;;;;;;8.63;8.13;;;;;;;20.66;75.14;101230.25;4826099;29;20248;-72
2023/08/24 07:33:34;;;;;;;10.37;9.10;;;;;;;20.72;74.61;101232.13;4824782;29;20202;-72
2023/08/24 07:36:04;;;;;;;10.30;9.53;;;;;;;20.83;74.49;101219.84;4825650;29;20633;-71
2023/08/24 07:38:31;;;;;;;10.90;9.53;;;;;;;20.94;73.81;101220.06;4825517;29;20227;-71
2023/08/24 07:40:58;;;;;;;10.20;9.07;;;;;;;21.05;72.70;101209.63;4825508;29;20255;-71
2023/08/24 07:43:24;;;;;;;11.20;9.90;;;;;;;21.17;72.11;101202.53;4826000;29;20248;-71
2023/08/24 07:45:52;;;;;;;12.03;10.77;;;;;;;21.26;72.39;101198.56;4825966;29;20742;-71
2023/08/24 07:48:18;;;;;;;13.13;10.37;;;;;;;21.37;72.04;101195.19;4825590;29;20591;-71
2023/08/24 07:50:45;;;;;;;11.07;10.07;;;;;;;21.49;71.74;101198.94;4825860;29;20306;-71
2023/08/24 07:53:11;;;;;;;9.83;9.33;;;;;;;21.66;71.69;101196.59;4825919;29;20195;-71
2023/08/24 07:55:38;;;;;;;8.63;7.70;;;;;;;21.72;71.73;101199.34;4825833;29;20199;-72
2023/08/24 07:58:04;;;;;;;9.90;9.10;;;;;;;21.75;68.15;101206.22;4825190;29;20769;-71
2023/08/24 08:00:31;;;;;;;9.10;8.40;;;;;;;21.79;69.12;101200.16;4825543;29;20191;-72
2023/08/24 08:02:57;;;;;;;9.50;8.77;;;;;;;21.88;69.73;101209.75;4825270;29;20200;-72
2023/08/24 08:05:24;;;;;;;10.70;9.80;;;;;;;21.98;69.33;101222.94;4825251;29;20230;-72
2023/08/24 08:07:50;;;;;;;7.93;7.37;;;;;;;21.98;69.52;101220.22;4825104;29;20207;-72
2023/08/24 08:10:20;;;;;;;16.80;6.97;;;;;;;22.02;69.47;101216.03;4825389;29;20216;-71
2023/08/24 08:12:46;;;;;;;8.17;7.33;;;;;;;22.04;69.73;101216.63;4825139;29;20191;-72
2023/08/24 08:15:13;;;;;;;9.37;8.97;;;;;;;22.11;68.15;101220.16;4825662;29;20191;-72
2023/08/24 08:17:39;;;;;;;10.87;8.03;;;;;;;22.19;68.08;101225.38;4825254;29;20275;-71
2023/08/24 08:20:06;;;;;;;8.02;7.63;;;;;;;22.26;68.03;101223.47;4824999;29;20794;-72
2023/08/24 08:22:38;;;;;;;7.68;7.07;;;;;;;22.29;68.62;101220.31;4824961;29;20222;-72
2023/08/24 08:25:06;;;;;;;8.57;8.10;;;;;;;22.42;68.58;101210.41;4825242;29;20188;-72
2023/08/24 08:27:33;;;;;;;8.05;7.38;;;;;;;22.57;68.97;101213.69;4825083;29;20251;-72
2023/08/24 08:29:59;;;;;;;12.23;7.60;;;;;;;22.62;68.60;101220.13;4824793;29;20214;-72
2023/08/24 08:32:27;;;;;;;7.32;6.93;;;;;;;22.62;67.63;101203.78;4825131;29;20207;-72
2023/08/24 08:34:56;;;;;;;7.97;7.68;;;;;;;22.67;68.53;101201.25;4823972;29;20188;-72
2023/08/24 08:37:23;;;;;;;13.10;8.05;;;;;;;22.86;67.66;101191.31;4825015;29;20203;-72
2023/08/24 08:39:49;;;;;;;11.25;7.45;;;;;;;22.95;67.08;101184.53;4824689;29;20672;-72
2023/08/24 08:42:16;;;;;;;9.60;8.50;;;;;;;23.02;66.79;101188.03;4824748;29;20191;-72
2023/08/24 08:44:45;;;;;;;8.20;7.40;;;;;;;23.07;67.71;101190.94;4824364;29;20195;-72
2023/08/24 08:47:12;;;;;;;7.32;6.80;;;;;;;23.15;67.38;101189.81;4824529;29;20192;-71
2023/08/24 08:49:39;;;;;;;7.28;6.65;;;;;;;23.22;66.92;101191.41;4824824;29;20696;-72
2023/08/24 08:52:06;;;;;;;9.48;7.13;;;;;;;23.31;68.20;101183.78;4824857;29;20264;-71
2023/08/24 08:54:33;;;;;;;7.10;6.72;;;;;;;23.44;67.05;101183.69;4825133;29;20183;-71
2023/08/24 08:57:01;;;;;;;7.05;6.70;;;;;;;23.50;65.91;101177.34;4824535;29;20198;-71
2023/08/24 08:59:30;;;;;;;5.97;5.50;;;;;;;23.56;65.82;101176.44;4824474;29;20207;-72
2023/08/24 09:01:58;;;;;;;7.03;6.60;;;;;;;23.72;64.64;101158.59;4824787;29;20202;-71
2023/08/24 09:04:25;;;;;;;6.28;5.72;;;;;;;23.83;64.23;101162.50;4824729;29;20199;-73
2023/08/24 09:06:51;;;;;;;9.00;7.18;;;;;;;23.87;63.69;101160.97;4824981;29;20195;-72
2023/08/24 09:09:18;;;;;;;6.35;6.10;;;;;;;23.91;62.30;101156.72;4824289;29;20591;-72
2023/08/24 09:11:47;;;;;;;12.10;6.43;;;;;;;23.91;62.36;101145.78;4824381;29;20255;-72
2023/08/24 09:14:14;;;;;;;6.18;5.90;;;;;;;23.94;63.10;101145.31;4824611;29;20207;-72
2023/08/24 09:16:43;;;;;;;7.15;6.55;;;;;;;24.02;60.74;101145.84;4824335;29;20194;-71
2023/08/24 09:19:13;;;;;;;5.78;5.30;;;;;;;24.13;59.59;101144.25;4824276;29;20218;-72
2023/08/24 09:21:41;;;;;;;6.50;6.13;;;;;;;24.18;60.61;101128.03;4824259;29;20207;-72
2023/08/24 09:24:08;;;;;;;6.72;6.10;;;;;;;24.29;60.51;101124.50;4824484;29;20616;-72
2023/08/24 09:26:36;;;;;;;6.07;5.63;;;;;;;24.43;62.20;101108.75;4824216;29;20203;-72
2023/08/24 09:29:14;;;;;;;6.93;6.15;;;;;;;24.54;60.21;101111.50;4824537;29;20688;-72
2023/08/24 09:31:43;;;;;;;5.65;5.25;;;;;;;24.63;59.95;101101.06;4824126;29;20197;-71
2023/08/24 09:34:11;;;;;;;5.43;5.20;;;;;;;24.74;59.74;101086.56;4824480;29;20199;-71
2023/08/24 09:36:39;;;;;;;4.82;4.72;;;;;;;24.85;58.25;101074.88;4824077;29;20199;-72
2023/08/24 09:39:06;;;;;;;5.30;4.82;;;;;;;24.86;58.68;101059.28;4823827;29;20629;-72
2023/08/24 09:41:40;;;;;;;4.60;4.50;;;;;;;24.84;59.16;101058.66;4824233;29;20194;-72
2023/08/24 09:44:11;;;;;;;4.85;4.55;;;;;;;24.90;60.75;101055.84;4824340;29;20187;-72
2023/08/24 09:46:39;;;;;;;6.32;5.80;;;;;;;24.94;59.58;101056.19;4824533;29;20203;-72
2023/08/24 09:49:06;;;;;;;6.30;5.93;;;;;;;24.97;59.96;101042.03;4823904;29;20260;-71
2023/08/24 09:51:34;;;;;;;6.03;5.78;;;;;;;25.01;59.07;101044.06;4824216;29;20199;-72
2023/08/24 09:54:08;;;;;;;5.57;5.35;;;;;;;25.07;59.34;101047.75;4824199;29;20187;-72
2023/08/24 09:56:37;;;;;;;5.88;5.72;;;;;;;25.17;59.05;101055.34;4826350;29;20188;-71
2023/08/24 09:59:16;;;;;;;6.28;5.78;;;;;;;25.20;59.41;101046.66;4827068;29;20226;-72
2023/08/24 10:01:46;;;;;;;6.22;6.10;;;;;;;25.25;59.96;101050.31;4827119;29;20208;-72
2023/08/24 10:04:14;;;;;;;5.65;5.35;;;;;;;25.30;60.11;101049.59;4827030;29;20195;-72
2023/08/24 10:06:42;;;;;;;7.03;5.00;;;;;;;25.30;59.94;101047.72;4827269;29;20203;-73
2023/08/24 10:09:16;;;;;;;5.60;5.43;;;;;;;25.30;59.38;101050.44;4826869;29;20624;-72
2023/08/24 10:11:51;;;;;;;5.95;5.50;;;;;;;25.30;60.49;101060.56;4826978;29;20272;-72
2023/08/24 10:14:26;;;;;;;6.25;5.88;;;;;;;25.32;60.71;101075.69;4827267;29;20645;-72
2023/08/24 10:16:53;;;;;;;6.22;6.13;;;;;;;25.38;59.82;101071.97;4826963;29;20252;-72
2023/08/24 10:19:22;;;;;;;5.57;5.40;;;;;;;25.43;60.02;101085.78;4827258;29;20223;-71
2023/08/24 10:21:50;;;;;;;6.32;5.70;;;;;;;25.45;59.33;101091.84;4826764;29;20247;-71
2023/08/24 10:24:20;;;;;;;6.45;6.03;;;;;;;25.51;58.41;101083.72;4826973;29;20198;-72
2023/08/24 10:26:47;;;;;;;5.88;5.32;;;;;;;25.57;56.99;101083.66;4827208;29;20636;-73
2023/08/24 10:29:14;;;;;;;12.02;4.90;;;;;;;25.59;57.50;101084.22;4826548;29;20270;-72
2023/08/24 10:31:41;;;;;;;5.80;4.95;;;;;;;25.71;59.06;101076.00;4827063;29;20203;-72
2023/08/24 10:34:09;;;;;;;6.20;5.97;;;;;;;25.74;59.00;101078.25;4826479;29;20223;-72
2023/08/24 10:36:39;;;;;;;8.45;5.78;;;;;;;25.76;57.91;101078.81;4826510;29;20195;-72
2023/08/24 10:39:06;;;;;;;6.10;5.75;;;;;;;25.79;58.08;101084.66;4826602;29;20223;-71
2023/08/24 10:41:49;;;;;;;6.70;6.38;;;;;;;25.80;59.18;101088.22;4826351;29;20275;-72
2023/08/24 10:44:33;;;;;;;5.22;4.95;;;;;;;25.84;58.03;101075.72;4826396;29;20172;-72
2023/08/24 10:47:26;;;;;;;7.30;5.30;;;;;;;25.80;58.19;101071.81;4826328;29;20245;-72
2023/08/24 10:49:56;;;;;;;5.90;5.40;;;;;;;25.82;58.39;101067.72;4825338;29;20292;-71
2023/08/24 10:52:24;;;;;;;5.82;5.70;;;;;;;25.84;59.51;101065.56;4826253;29;20274;-73
2023/08/24 10:54:52;;;;;;;6.35;5.93;;;;;;;25.86;60.30;101070.81;4826366;29;20576;-72
2023/08/24 10:57:24;;;;;;;7.40;6.78;;;;;;;25.89;59.75;101064.84;4826100;29;20255;-71
2023/08/24 10:59:59;;;;;;;7.82;6.03;;;;;;;25.96;56.41;101062.81;4826395;29;20211;-72
2023/08/24 11:02:26;;;;;;;4.65;4.45;;;;;;;26.02;54.66;101058.22;4826385;29;20238;-73
2023/08/24 11:05:24;;;;;;;5.05;4.85;;;;;;;26.01;57.88;101057.41;4826173;29;20597;-72
2023/08/24 11:07:58;;;;;;;4.72;4.63;;;;;;;26.08;56.77;101054.53;4826277;29;20279;-72
2023/08/24 11:10:30;;;;;;;6.07;5.68;;;;;;;26.07;58.48;101047.38;4825986;29;20214;-72
2023/08/24 11:13:03;;;;;;;5.75;4.90;;;;;;;26.09;57.71;101054.28;4826561;29;20217;-72
2023/08/24 11:15:37;;;;;;;5.80;5.70;;;;;;;26.12;56.60;101047.47;4826058;29;20190;-72
2023/08/24 11:18:14;;;;;;;5.20;4.97;;;;;;;26.15;56.07;101036.84;4826146;29;20227;-71
2023/08/24 11:21:00;;;;;;;7.60;5.43;;;;;;;26.15;55.25;101034.09;4825872;29;20179;-72
2023/08/24 11:23:26;;;;;;;4.72;4.47;;;;;;;26.21;55.42;101030.41;4826226;29;20188;-72
2023/08/24 11:25:56;;;;;;;4.82;4.72;;;;;;;26.25;54.04;101023.34;4826097;29;20601;-72